Time;durP1;ratioP1;P1;durP2;ratioP2;P2;SDS_P1;SDS_P2;PMS_P1;PMS_P2;Temp;Humidity;BMP_temperature;BMP_pressure;BME280_temperature;BME280_humidity;BME280_pressure;Samples;Min_cycle;Max_cycle;Signal;HPM_P1;HPM_P2
2021/04/05 00:00:38;;;;;;;34.83;14.27;;;4.70;99.90;;;;;;5072762;28;20354;-60
2021/04/05 00:03:04;;;;;;;36.42;14.90;;;4.70;99.90;;;;;;5072471;28;20033;-60
2021/04/05 00:05:32;;;;;;;37.25;15.00;;;4.70;99.90;;;;;;5072376;28;20393;-60
2021/04/05 00:07:58;;;;;;;35.92;12.20;;;4.60;99.90;;;;;;5072365;28;20043;-60
2021/04/05 00:10:28;;;;;;;29.45;13.40;;;4.70;99.90;;;;;;5073921;28;20028;-60
2021/04/05 00:12:56;;;;;;;26.88;12.63;;;4.70;99.90;;;;;;5074261;28;20036;-60
2021/04/05 00:15:22;;;;;;;33.05;14.38;;;4.60;99.90;;;;;;5072244;28;20020;-60
2021/04/05 00:17:48;;;;;;;29.75;13.13;;;4.60;99.90;;;;;;5073779;28;20029;-60
2021/04/05 00:20:19;;;;;;;38.00;12.82;;;4.50;99.90;;;;;;5071935;28;20032;-60
2021/04/05 00:22:45;;;;;;;32.85;13.55;;;4.50;99.90;;;;;;5072960;28;20016;-60
2021/04/05 00:25:11;;;;;;;32.85;14.52;;;4.50;99.90;;;;;;5071735;28;20119;-60
2021/04/05 00:27:38;;;;;;;33.53;14.95;;;4.40;99.90;;;;;;5073743;28;20350;-60
2021/04/05 00:30:17;;;;;;;36.33;13.25;;;4.40;99.90;;;;;;5071934;28;20386;-60
2021/04/05 00:32:45;;;;;;;29.42;13.07;;;4.40;99.90;;;;;;5073035;28;20034;-60
2021/04/05 00:35:11;;;;;;;40.90;15.05;;;4.40;99.90;;;;;;5073251;28;20016;-60
2021/04/05 00:37:37;;;;;;;23.77;9.50;;;4.40;99.90;;;;;;5073342;28;20024;-60
2021/04/05 00:40:10;;;;;;;25.90;11.35;;;4.40;99.90;;;;;;5071749;28;20055;-60
2021/04/05 00:42:37;;;;;;;35.90;14.23;;;4.40;99.90;;;;;;5071799;28;20366;-60
2021/04/05 00:45:11;;;;;;;33.83;13.23;;;4.40;99.90;;;;;;5072828;28;20036;-60
2021/04/05 00:47:51;;;;;;;31.88;13.75;;;4.50;99.90;;;;;;5071507;28;20024;-60
2021/04/05 00:50:25;;;;;;;37.65;15.05;;;4.40;99.90;;;;;;5072728;28;20040;-60
2021/04/05 00:52:52;;;;;;;38.10;13.65;;;4.40;99.90;;;;;;5072649;28;20037;-60
2021/04/05 00:55:19;;;;;;;38.80;14.43;;;4.40;99.90;;;;;;5072862;28;20063;-60
2021/04/05 00:57:45;;;;;;;30.35;15.13;;;4.40;99.90;;;;;;5072887;28;20477;-61
2021/04/05 01:00:26;;;;;;;35.42;12.70;;;4.40;99.90;;;;;;5072743;28;20017;-61
2021/04/05 01:02:51;;;;;;;34.28;14.25;;;4.30;99.90;;;;;;5072594;28;20032;-61
2021/04/05 01:05:17;;;;;;;36.30;14.48;;;4.30;99.90;;;;;;5072676;28;20029;-61
2021/04/05 01:07:43;;;;;;;35.33;15.75;;;4.30;99.90;;;;;;5072629;28;20029;-60
2021/04/05 01:10:10;;;;;;;27.73;13.45;;;4.30;99.90;;;;;;5072314;28;20020;-60
2021/04/05 01:12:37;;;;;;;36.50;15.23;;;4.30;99.90;;;;;;5072225;28;20024;-60
2021/04/05 01:15:06;;;;;;;33.55;14.32;;;4.30;99.90;;;;;;5070918;28;20028;-60
2021/04/05 01:17:32;;;;;;;40.28;15.40;;;4.30;99.90;;;;;;5072891;28;20052;-60
2021/04/05 01:19:58;;;;;;;41.47;16.10;;;4.20;99.90;;;;;;5070799;28;20021;-60
2021/04/05 01:22:23;;;;;;;34.60;15.45;;;4.20;99.90;;;;;;5070650;28;20031;-60
2021/04/05 01:24:50;;;;;;;43.72;16.92;;;4.20;99.90;;;;;;5071935;28;20504;-60
2021/04/05 01:27:16;;;;;;;43.80;16.90;;;4.20;99.90;;;;;;5072148;28;20530;-60
2021/04/05 01:29:41;;;;;;;26.42;11.90;;;4.10;99.90;;;;;;5071916;28;20107;-60
2021/04/05 01:32:07;;;;;;;30.67;14.02;;;4.10;99.90;;;;;;5071852;28;20416;-60
2021/04/05 01:34:37;;;;;;;47.70;17.52;;;4.20;99.90;;;;;;5070630;28;20024;-60
2021/04/05 01:37:03;;;;;;;41.53;17.27;;;4.20;99.90;;;;;;5071987;28;20032;-60
2021/04/05 01:39:33;;;;;;;39.72;17.00;;;4.20;99.90;;;;;;5071710;28;20031;-60
2021/04/05 01:41:59;;;;;;;43.03;18.85;;;4.20;99.90;;;;;;5071345;28;20028;-60
2021/04/05 01:44:25;;;;;;;51.72;17.45;;;4.20;99.90;;;;;;5071399;28;20107;-60
2021/04/05 01:46:51;;;;;;;43.17;18.77;;;4.20;99.90;;;;;;5071647;28;20422;-60
2021/04/05 01:49:17;;;;;;;47.15;17.95;;;4.20;99.90;;;;;;5071563;28;20100;-60
2021/04/05 01:51:43;;;;;;;46.13;19.10;;;4.30;99.90;;;;;;5071931;28;20486;-60
2021/04/05 01:54:08;;;;;;;41.95;19.48;;;4.50;99.90;;;;;;5071761;28;20050;-60
2021/04/05 01:56:34;;;;;;;50.67;19.05;;;4.50;99.90;;;;;;5071885;28;20047;-60
2021/04/05 01:59:00;;;;;;;47.20;18.05;;;4.50;99.90;;;;;;5071985;28;20077;-60
2021/04/05 02:01:31;;;;;;;36.28;16.25;;;4.60;99.90;;;;;;5071497;28;20031;-60
2021/04/05 02:03:57;;;;;;;49.85;23.27;;;4.60;99.90;;;;;;5070365;28;20020;-60
2021/04/05 02:06:34;;;;;;;49.13;19.13;;;4.60;99.90;;;;;;5071681;28;20063;-60
2021/04/05 02:09:00;;;;;;;49.85;20.25;;;4.60;99.90;;;;;;5070452;28;20029;-60
2021/04/05 02:11:34;;;;;;;50.17;18.80;;;4.60;99.90;;;;;;5071587;28;20069;-60
2021/04/05 02:14:00;;;;;;;48.17;20.45;;;4.50;99.90;;;;;;5071470;28;20112;-60
2021/04/05 02:16:26;;;;;;;52.90;20.65;;;4.50;99.90;;;;;;5071864;28;20103;-60
2021/04/05 02:18:54;;;;;;;55.47;20.70;;;4.40;99.90;;;;;;5070237;28;20021;-60
2021/04/05 02:21:22;;;;;;;58.60;22.73;;;4.40;99.90;;;;;;5071195;28;20039;-61
2021/04/05 02:23:53;;;;;;;52.78;22.92;;;4.40;99.90;;;;;;5075058;28;20024;-61
2021/04/05 02:26:26;;;;;;;51.10;23.80;;;4.50;99.90;;;;;;5075225;28;20032;-60
2021/04/05 02:29:00;;;;;;;53.67;23.90;;;4.50;99.90;;;;;;5075561;28;20044;-60
2021/04/05 02:31:29;;;;;;;48.13;24.60;;;4.60;99.90;;;;;;5075313;28;20028;-60
2021/04/05 02:33:57;;;;;;;48.00;21.92;;;4.60;99.90;;;;;;5075174;28;20047;-60
2021/04/05 02:36:25;;;;;;;61.38;24.20;;;4.60;99.90;;;;;;5075114;28;20032;-60
2021/04/05 02:38:53;;;;;;;54.22;24.25;;;4.60;99.90;;;;;;5075110;28;20070;-61
2021/04/05 02:41:21;;;;;;;54.13;24.30;;;4.60;99.90;;;;;;5073867;28;20136;-61
2021/04/05 02:43:47;;;;;;;50.20;22.02;;;4.70;99.90;;;;;;5075134;28;20025;-61
2021/04/05 02:46:19;;;;;;;48.33;21.50;;;4.80;99.90;;;;;;5073683;28;20043;-61
2021/04/05 02:48:46;;;;;;;55.08;25.35;;;4.90;99.90;;;;;;5075290;28;20573;-61
2021/04/05 02:51:13;;;;;;;62.33;25.05;;;4.90;99.90;;;;;;5074800;28;20048;-61
2021/04/05 02:54:01;;;;;;;57.78;26.00;;;4.90;99.90;;;;;;5074208;28;20428;-61
2021/04/05 02:56:29;;;;;;;61.95;28.15;;;5.00;99.90;;;;;;5073290;28;20488;-61
2021/04/05 02:58:56;;;;;;;63.03;28.73;;;5.00;99.90;;;;;;5073255;28;20039;-61
2021/04/05 03:01:24;;;;;;;69.00;31.08;;;5.00;99.90;;;;;;5073377;28;20054;-61
2021/04/05 03:03:50;;;;;;;55.53;25.70;;;5.00;99.90;;;;;;5073134;28;20051;-61
2021/04/05 03:06:19;;;;;;;58.78;24.15;;;5.10;99.90;;;;;;5074168;28;20496;-61
2021/04/05 03:08:45;;;;;;;62.75;29.02;;;5.10;99.90;;;;;;5074763;28;20025;-61
2021/04/05 03:11:22;;;;;;;71.53;30.95;;;5.20;99.90;;;;;;5074180;28;20096;-61
2021/04/05 03:13:48;;;;;;;61.03;26.15;;;5.20;99.90;;;;;;5073068;28;20032;-61
2021/04/05 03:16:22;;;;;;;65.38;28.63;;;5.20;99.90;;;;;;5074227;28;20023;-61
2021/04/05 03:18:50;;;;;;;64.53;28.88;;;5.30;99.90;;;;;;5074299;28;20043;-61
2021/04/05 03:21:18;;;;;;;65.00;29.25;;;5.20;99.90;;;;;;5073896;28;20016;-61
2021/04/05 03:23:45;;;;;;;63.45;28.80;;;5.20;99.90;;;;;;5073600;28;20020;-61
2021/04/05 03:26:11;;;;;;;65.10;29.02;;;5.30;99.90;;;;;;5072934;28;20028;-61
2021/04/05 03:28:38;;;;;;;68.18;29.08;;;5.30;99.90;;;;;;5074194;28;20061;-61
2021/04/05 03:31:16;;;;;;;66.18;28.75;;;5.30;99.90;;;;;;5074364;28;20041;-61
2021/04/05 03:33:56;;;;;;;60.15;27.80;;;5.40;99.90;;;;;;5074024;28;20185;-61
2021/04/05 03:36:30;;;;;;;59.33;26.08;;;5.50;99.90;;;;;;5072963;28;20043;-61
2021/04/05 03:38:59;;;;;;;56.75;27.80;;;5.50;99.90;;;;;;5074379;28;20024;-61
2021/04/05 03:41:56;;;;;;;55.20;28.30;;;5.50;99.90;;;;;;5074335;28;20392;-61
2021/04/05 03:44:40;;;;;;;58.95;27.13;;;5.60;99.90;;;;;;5074232;28;20021;-61
2021/04/05 03:47:14;;;;;;;72.30;28.95;;;5.60;99.90;;;;;;5072934;28;20035;-61
2021/04/05 03:49:51;;;;;;;56.20;27.73;;;5.60;99.90;;;;;;5073810;28;20033;-61
2021/04/05 03:52:26;;;;;;;61.50;27.25;;;5.60;99.90;;;;;;5073961;28;20028;-61
2021/04/05 03:54:57;;;;;;;58.25;23.40;;;5.60;99.90;;;;;;5072501;28;20055;-61
2021/04/05 03:57:28;;;;;;;70.93;27.80;;;5.60;99.90;;;;;;5074201;28;20012;-61
2021/04/05 03:59:57;;;;;;;63.92;28.83;;;5.60;99.90;;;;;;5072726;28;20008;-61
2021/04/05 04:02:31;;;;;;;52.45;27.10;;;5.60;99.90;;;;;;5073314;28;20033;-61
2021/04/05 04:05:09;;;;;;;68.32;30.88;;;5.50;99.90;;;;;;5073185;28;20017;-61
2021/04/05 04:10:08;;;;;;;63.63;29.42;;;5.60;99.90;;;;;;5073905;28;20087;-61
2021/04/05 04:12:36;;;;;;;65.65;30.33;;;5.60;99.90;;;;;;5073658;28;20043;-61
2021/04/05 04:15:02;;;;;;;67.32;29.13;;;5.60;99.90;;;;;;5073854;28;20567;-61
2021/04/05 04:17:32;;;;;;;70.88;32.15;;;5.70;99.90;;;;;;5074272;28;20048;-61
2021/04/05 04:19:59;;;;;;;71.35;31.02;;;5.70;99.90;;;;;;5073741;28;20089;-61
2021/04/05 04:22:25;;;;;;;67.10;31.38;;;5.80;99.90;;;;;;5072835;28;20107;-61
2021/04/05 04:24:53;;;;;;;65.50;29.17;;;5.80;99.90;;;;;;5073397;28;20562;-61
2021/04/05 04:27:19;;;;;;;59.25;27.33;;;5.90;99.90;;;;;;5073502;28;20039;-61
2021/04/05 04:29:52;;;;;;;59.30;29.42;;;5.90;99.90;;;;;;5072176;28;20024;-61
2021/04/05 04:32:18;;;;;;;66.50;31.88;;;5.90;99.90;;;;;;5073197;28;20499;-61
2021/04/05 04:34:43;;;;;;;65.20;31.40;;;6.00;99.90;;;;;;5073176;28;20024;-61
2021/04/05 04:37:10;;;;;;;71.05;30.42;;;6.00;99.90;;;;;;5073040;28;20095;-61
2021/04/05 04:39:35;;;;;;;66.07;30.17;;;6.10;99.90;;;;;;5073266;28;20032;-61
2021/04/05 04:42:02;;;;;;;61.00;27.70;;;6.10;99.90;;;;;;5073772;28;20028;-61
2021/04/05 04:44:27;;;;;;;67.03;29.40;;;6.20;99.90;;;;;;5072980;28;20098;-61
2021/04/05 04:46:53;;;;;;;70.93;28.35;;;6.30;99.90;;;;;;5071765;28;20029;-61
2021/04/05 04:49:19;;;;;;;66.68;28.58;;;6.30;99.90;;;;;;5072641;28;20048;-61
2021/04/05 04:51:44;;;;;;;63.38;26.27;;;6.40;99.90;;;;;;5071433;28;20036;-62
2021/04/05 04:54:12;;;;;;;66.13;28.02;;;6.40;99.90;;;;;;5071212;28;20070;-62
2021/04/05 04:56:38;;;;;;;66.80;28.50;;;6.50;99.90;;;;;;5072955;28;20074;-62
2021/04/05 04:59:06;;;;;;;59.33;27.15;;;6.60;99.90;;;;;;5071820;28;20541;-62
2021/04/05 05:01:37;;;;;;;63.05;26.92;;;6.60;99.90;;;;;;5072826;28;20377;-62
2021/04/05 05:04:08;;;;;;;66.25;26.63;;;6.60;99.90;;;;;;5072682;28;20024;-62
2021/04/05 05:06:35;;;;;;;69.88;27.55;;;6.70;99.90;;;;;;5072787;28;20020;-61
2021/04/05 05:09:02;;;;;;;61.40;26.80;;;6.80;99.90;;;;;;5071115;28;20076;-61
2021/04/05 05:11:28;;;;;;;61.38;25.83;;;6.80;99.90;;;;;;5071007;28;20115;-61
2021/04/05 05:13:56;;;;;;;59.60;27.50;;;6.80;99.90;;;;;;5072047;28;20159;-61
2021/04/05 05:16:26;;;;;;;61.92;25.73;;;6.90;99.90;;;;;;5072109;28;20028;-61
2021/04/05 05:18:59;;;;;;;54.30;25.10;;;6.90;99.90;;;;;;5072058;28;20516;-60
2021/04/05 05:21:59;;;;;;;51.35;23.65;;;7.00;99.90;;;;;;5070894;28;20043;-60
2021/04/05 05:24:29;;;;;;;59.85;25.98;;;7.00;99.90;;;;;;5049134;28;20040;-60
2021/04/05 05:26:56;;;;;;;56.20;24.95;;;7.00;99.90;;;;;;5072120;28;20067;-60
2021/04/05 05:29:23;;;;;;;62.45;25.23;;;7.00;99.90;;;;;;5072277;28;20495;-60
2021/04/05 05:31:49;;;;;;;55.13;23.42;;;7.10;99.90;;;;;;5070575;28;20032;-62
2021/04/05 05:34:16;;;;;;;52.30;24.23;;;7.10;99.90;;;;;;5072071;28;20040;-62
2021/04/05 05:36:43;;;;;;;53.80;23.75;;;7.10;99.90;;;;;;5072122;28;20009;-62
2021/04/05 05:39:10;;;;;;;58.40;25.17;;;7.20;99.90;;;;;;5072052;28;20017;-62
2021/04/05 05:41:52;;;;;;;53.15;23.90;;;7.20;99.90;;;;;;5072036;28;20051;-62
2021/04/05 05:44:47;;;;;;;46.75;22.40;;;7.20;99.90;;;;;;5071874;28;20021;-62
2021/04/05 05:47:21;;;;;;;45.25;22.17;;;7.20;99.90;;;;;;5070303;28;20536;-62
2021/04/05 05:49:51;;;;;;;53.92;22.63;;;7.20;99.90;;;;;;5071679;28;20354;-62
2021/04/05 05:52:22;;;;;;;52.50;23.52;;;7.20;99.90;;;;;;5071854;28;20083;-61
2021/04/05 05:55:12;;;;;;;55.53;22.85;;;7.30;99.90;;;;;;5071587;28;20549;-61
2021/04/05 05:57:55;;;;;;;49.70;22.70;;;7.30;99.90;;;;;;5069663;28;20477;-61
2021/04/05 06:00:28;;;;;;;45.08;22.23;;;7.30;99.90;;;;;;5072132;28;20025;-61
2021/04/05 06:03:08;;;;;;;43.00;22.42;;;7.30;99.90;;;;;;5071626;28;20111;-62
2021/04/05 06:05:47;;;;;;;50.97;21.33;;;7.30;99.90;;;;;;5070000;28;20443;-62
2021/04/05 06:08:50;;;;;;;48.28;22.83;;;7.30;99.90;;;;;;5070325;28;20035;-62
2021/04/05 06:11:29;;;;;;;50.72;21.83;;;7.20;99.90;;;;;;5071525;28;20035;-62
2021/04/05 06:14:00;;;;;;;47.60;21.90;;;7.30;99.90;;;;;;5071464;28;20032;-62
2021/04/05 06:16:35;;;;;;;42.58;21.83;;;7.40;99.90;;;;;;5071962;28;20072;-62
2021/04/05 06:19:38;;;;;;;42.03;21.65;;;7.50;99.90;;;;;;5071431;28;20099;-61
2021/04/05 06:22:38;;;;;;;49.72;20.73;;;7.50;99.90;;;;;;5012289;28;20025;-61
2021/04/05 06:25:06;;;;;;;47.42;19.70;;;7.50;99.90;;;;;;5028721;28;20029;-61
2021/04/05 06:27:52;;;;;;;47.60;20.77;;;7.60;99.90;;;;;;5059162;28;20082;-61
2021/04/05 06:30:39;;;;;;;52.42;21.52;;;7.60;99.90;;;;;;5071035;28;20012;-61
2021/04/05 06:33:17;;;;;;;43.83;20.05;;;7.60;99.90;;;;;;5070058;28;20581;-62
2021/04/05 06:36:21;;;;;;;43.85;20.95;;;7.60;99.90;;;;;;5071105;28;20028;-62
2021/04/05 06:39:05;;;;;;;43.85;20.05;;;7.60;99.90;;;;;;5071349;28;20016;-61
2021/04/05 06:41:35;;;;;;;36.78;18.27;;;7.60;99.90;;;;;;5071101;28;20020;-61
2021/04/05 06:44:21;;;;;;;42.40;19.67;;;7.60;99.90;;;;;;5071209;28;20025;-61
2021/04/05 06:46:50;;;;;;;37.92;18.08;;;7.70;99.90;;;;;;5071330;28;20102;-61
2021/04/05 06:49:33;;;;;;;37.13;17.33;;;7.70;99.90;;;;;;5069690;28;20035;-61
2021/04/05 06:52:13;;;;;;;39.95;19.30;;;7.70;99.90;;;;;;5071353;28;20033;-62
2021/04/05 06:55:16;;;;;;;35.40;17.98;;;7.70;99.90;;;;;;5070789;28;20020;-61
2021/04/05 06:58:00;;;;;;;;;;;7.80;99.90;;;;;;5071778;28;20042;-61
2021/04/05 07:00:54;;;;;;;39.45;18.20;;;7.80;99.90;;;;;;5071223;28;19910;-61
2021/04/05 07:03:29;;;;;;;37.28;16.60;;;7.80;99.90;;;;;;5069875;28;20687;-61
2021/04/05 07:06:16;;;;;;;33.60;17.67;;;7.80;99.90;;;;;;5071138;28;20051;-62
2021/04/05 07:08:53;;;;;;;41.67;17.48;;;7.90;99.90;;;;;;5071959;28;20036;-61
2021/04/05 07:11:47;;;;;;;38.97;16.95;;;7.90;99.90;;;;;;5074865;28;20574;-61
2021/04/05 07:14:26;;;;;;;35.17;16.10;;;7.90;99.90;;;;;;5075190;28;20033;-61
2021/04/05 07:17:16;;;;;;;34.60;15.95;;;7.90;99.90;;;;;;5074648;28;20432;-61
2021/04/05 07:20:07;;;;;;;15.13;7.32;;;7.90;99.90;;;;;;5074197;28;20370;-61
2021/04/05 07:23:12;;;;;;;15.05;5.55;;;7.70;99.90;;;;;;5074292;28;20093;-61
2021/04/05 07:26:14;;;;;;;11.45;3.88;;;7.30;99.90;;;;;;5062870;28;20040;-60
2021/04/05 07:28:57;;;;;;;11.90;4.20;;;7.00;99.90;;;;;;5073320;28;20362;-59
2021/04/05 07:31:37;;;;;;;10.95;3.17;;;6.90;99.90;;;;;;5072618;28;20477;-58
2021/04/05 07:34:45;;;;;;;10.68;3.65;;;6.90;99.90;;;;;;5073659;28;20029;-57
2021/04/05 07:37:24;;;;;;;12.43;3.65;;;6.90;99.90;;;;;;5072583;28;20097;-58
2021/04/05 07:40:05;;;;;;;13.07;3.90;;;6.80;99.90;;;;;;5074053;28;20024;-58
2021/04/05 07:42:45;;;;;;;14.38;3.75;;;6.90;99.90;;;;;;5074410;28;20477;-58
2021/04/05 07:45:32;;;;;;;11.38;3.60;;;6.80;99.90;;;;;;5074353;28;20552;-59
2021/04/05 07:48:29;;;;;;;16.50;4.32;;;6.80;99.90;;;;;;5074524;28;20082;-59
2021/04/05 07:50:58;;;;;;;19.52;4.13;;;6.80;99.90;;;;;;5065242;28;20571;-59
2021/04/05 07:53:32;;;;;;;16.67;3.63;;;6.90;99.90;;;;;;5073910;28;20037;-60
2021/04/05 07:56:11;;;;;;;16.95;4.22;;;6.80;99.90;;;;;;5073846;28;20052;-60
2021/04/05 07:58:59;;;;;;;13.48;3.80;;;6.80;99.90;;;;;;5072434;28;20020;-60
2021/04/05 08:01:30;;;;;;;23.00;4.43;;;6.80;99.90;;;;;;5073579;28;20477;-60
2021/04/05 08:04:04;;;;;;;18.90;4.45;;;6.90;99.90;;;;;;5072227;28;20571;-60
2021/04/05 08:07:02;;;;;;;19.80;4.20;;;6.90;99.90;;;;;;5073559;28;20024;-60
2021/04/05 08:09:42;;;;;;;24.80;4.80;;;6.90;99.90;;;;;;5069228;28;20566;-60
2021/04/05 08:12:28;;;;;;;20.42;4.10;;;6.90;99.90;;;;;;5073091;28;20387;-57
2021/04/05 08:15:16;;;;;;;10.70;2.75;;;6.90;99.90;;;;;;5073460;28;20020;-58
2021/04/05 08:17:59;;;;;;;6.38;2.00;;;6.60;99.90;;;;;;5073468;28;20024;-57
2021/04/05 08:20:49;;;;;;;7.03;1.98;;;6.20;99.90;;;;;;5072378;28;20492;-57
2021/04/05 08:23:38;;;;;;;9.75;2.20;;;6.00;99.90;;;;;;5072831;28;20393;-57
2021/04/05 08:26:33;;;;;;;6.32;1.73;;;5.70;99.90;;;;;;5073094;28;20035;-56
2021/04/05 08:29:24;;;;;;;11.73;2.33;;;5.60;99.90;;;;;;5050541;28;20170;-56
2021/04/05 08:31:59;;;;;;;11.25;2.30;;;5.50;99.90;;;;;;5073053;28;20508;-56
2021/04/05 08:34:35;;;;;;;6.43;1.58;;;5.40;99.90;;;;;;5071629;28;20028;-57
2021/04/05 08:37:13;;;;;;;16.67;2.03;;;5.30;99.90;;;;;;5073024;28;20039;-58
2021/04/05 08:39:42;;;;;;;7.60;2.00;;;5.30;99.90;;;;;;5071381;28;20120;-59
2021/04/05 08:42:51;;;;;;;11.85;2.40;;;5.40;99.90;;;;;;5072807;28;20016;-59
2021/04/05 08:45:23;;;;;;;12.07;2.35;;;5.50;99.90;;;;;;5010388;28;20038;-59
2021/04/05 08:48:20;;;;;;;16.60;2.92;;;5.50;99.90;;;;;;5062106;28;20098;-58
2021/04/05 08:50:59;;;;;;;19.85;2.85;;;5.50;99.90;;;;;;5072543;28;20032;-58
2021/04/05 08:53:27;;;;;;;22.75;3.75;;;5.40;99.90;;;;;;5072308;28;20040;-58
2021/04/05 08:55:57;;;;;;;24.23;4.00;;;5.40;99.90;;;;;;5072595;28;20566;-58
2021/04/05 08:58:27;;;;;;;24.63;4.68;;;5.40;99.90;;;;;;5071839;28;20027;-59
2021/04/05 09:00:58;;;;;;;20.90;5.40;;;5.50;99.90;;;;;;5072431;28;20067;-59
2021/04/05 09:03:29;;;;;;;24.83;4.65;;;5.60;99.90;;;;;;5072606;28;20038;-59
2021/04/05 09:05:55;;;;;;;23.40;3.88;;;5.60;99.90;;;;;;5072530;28;20038;-59
2021/04/05 09:08:24;;;;;;;22.67;4.55;;;5.60;99.90;;;;;;5071262;28;20037;-59
2021/04/05 09:11:03;;;;;;;22.70;4.47;;;5.60;99.90;;;;;;5072280;28;20027;-59
2021/04/05 09:13:33;;;;;;;26.50;4.68;;;5.50;99.90;;;;;;5070858;28;20020;-59
2021/04/05 09:16:21;;;;;;;19.50;3.63;;;5.50;99.90;;;;;;5071155;28;20141;-59
2021/04/05 09:19:17;;;;;;;17.27;3.63;;;5.40;99.90;;;;;;5072158;28;20017;-59
2021/04/05 09:21:52;;;;;;;21.33;3.42;;;5.40;99.90;;;;;;5072061;28;20089;-59
2021/04/05 09:24:24;;;;;;;15.55;3.03;;;5.50;99.90;;;;;;5071663;28;20517;-59
2021/04/05 09:26:50;;;;;;;;;;;5.40;99.90;;;;;;5072326;28;20025;-59
2021/04/05 09:29:21;;;;;;;19.35;3.25;;;5.40;99.90;;;;;;5071753;28;19927;-59
2021/04/05 09:32:09;;;;;;;14.82;2.95;;;5.60;99.90;;;;;;5071855;28;20016;-59
2021/04/05 09:35:05;;;;;;;21.75;3.67;;;5.60;99.90;;;;;;5071766;28;20043;-59
2021/04/05 09:37:52;;;;;;;17.83;4.10;;;5.50;99.90;;;;;;5072236;28;20437;-59
2021/04/05 09:40:23;;;;;;;16.42;3.25;;;5.50;99.90;;;;;;5071784;28;20020;-59
2021/04/05 09:43:24;;;;;;;18.42;3.40;;;5.50;99.90;;;;;;5071951;28;20448;-59
2021/04/05 09:46:14;;;;;;;19.17;3.38;;;5.40;99.90;;;;;;5071487;28;20024;-59
2021/04/05 09:48:49;;;;;;;16.77;3.20;;;5.50;99.90;;;;;;5071645;28;20469;-59
2021/04/05 09:51:24;;;;;;;21.13;3.65;;;5.60;99.90;;;;;;5071486;28;20079;-59
2021/04/05 09:54:26;;;;;;;20.33;3.33;;;5.50;99.90;;;;;;5071118;28;20083;-59
2021/04/05 09:57:07;;;;;;;16.48;3.00;;;5.30;99.90;;;;;;5071769;28;20086;-59
2021/04/05 09:59:42;;;;;;;17.70;3.70;;;5.20;99.90;;;;;;5072043;28;20067;-59
2021/04/05 10:02:10;;;;;;;17.23;3.60;;;5.30;99.90;;;;;;5071167;28;20492;-59
2021/04/05 10:04:38;;;;;;;16.75;3.70;;;5.40;99.90;;;;;;5070145;28;20025;-59
2021/04/05 10:07:06;;;;;;;18.40;3.13;;;5.70;99.90;;;;;;5071425;28;20021;-59
2021/04/05 10:09:32;;;;;;;10.82;2.58;;;5.90;99.90;;;;;;5071481;28;20389;-59
2021/04/05 10:12:04;;;;;;;14.93;3.20;;;5.90;99.90;;;;;;5071202;28;20052;-59
2021/04/05 10:14:30;;;;;;;14.50;3.60;;;6.00;99.90;;;;;;5071634;28;20039;-59
2021/04/05 10:16:58;;;;;;;15.45;3.88;;;5.70;99.90;;;;;;5070954;28;20038;-59
2021/04/05 10:19:27;;;;;;;11.85;2.33;;;5.70;99.90;;;;;;5069750;28;20115;-59
2021/04/05 10:22:15;;;;;;;12.27;3.05;;;5.50;99.90;;;;;;5070229;28;20020;-59
2021/04/05 10:24:44;;;;;;;24.25;3.75;;;5.50;99.90;;;;;;5070854;28;20036;-60
2021/04/05 10:27:15;;;;;;;21.45;3.65;;;5.80;99.90;;;;;;5070769;28;20021;-60
2021/04/05 10:29:44;;;;;;;17.75;4.10;;;6.10;99.90;;;;;;5070828;28;20049;-59
2021/04/05 10:32:15;;;;;;;21.15;4.80;;;6.20;99.90;;;;;;5070764;28;20020;-59
2021/04/05 10:34:45;;;;;;;19.15;4.50;;;6.50;99.90;;;;;;5071301;28;20018;-59
2021/04/05 10:37:15;;;;;;;18.30;3.85;;;6.60;99.90;;;;;;5071116;28;20021;-59
2021/04/05 10:39:51;;;;;;;14.50;3.90;;;6.80;99.90;;;;;;5070931;28;20431;-59
2021/04/05 10:42:23;;;;;;;10.40;2.88;;;6.70;99.90;;;;;;5071053;28;20664;-59
2021/04/05 10:44:52;;;;;;;9.18;2.38;;;6.60;99.90;;;;;;5073935;28;20036;-59
2021/04/05 10:47:27;;;;;;;8.90;2.13;;;6.80;99.90;;;;;;5075119;28;20032;-59
2021/04/05 10:49:55;;;;;;;11.38;2.53;;;6.80;99.50;;;;;;5074644;28;20055;-59
2021/04/05 10:52:32;;;;;;;12.85;2.90;;;7.10;99.80;;;;;;5074842;28;20158;-59
2021/04/05 10:54:58;;;;;;;17.08;3.05;;;7.30;98.70;;;;;;5074754;28;20024;-58
2021/04/05 10:57:31;;;;;;;12.57;2.90;;;7.20;97.20;;;;;;5074815;28;20452;-59
2021/04/05 11:00:05;;;;;;;15.38;3.47;;;7.00;99.20;;;;;;5074860;28;20032;-59
2021/04/05 11:02:37;;;;;;;15.68;3.40;;;6.80;99.90;;;;;;5074809;28;20078;-59
2021/04/05 11:05:11;;;;;;;20.70;3.25;;;6.40;99.90;;;;;;5074654;28;20032;-59
2021/04/05 11:07:40;;;;;;;17.25;3.53;;;6.10;99.90;;;;;;5074417;28;20100;-59
2021/04/05 11:10:08;;;;;;;20.60;3.10;;;6.00;99.90;;;;;;5074228;28;20040;-59
2021/04/05 11:12:38;;;;;;;21.48;3.22;;;5.80;99.90;;;;;;5074386;28;20025;-59
2021/04/05 11:15:07;;;;;;;16.75;4.03;;;5.90;99.90;;;;;;5074486;28;20450;-59
2021/04/05 11:17:34;;;;;;;16.73;3.80;;;7.00;99.90;;;;;;5074374;28;20017;-60
2021/04/05 11:20:02;;;;;;;17.48;3.90;;;8.70;99.90;;;;;;5074254;28;20024;-59
2021/04/05 11:22:29;;;;;;;12.35;2.67;;;9.20;99.90;;;;;;5072856;28;20542;-57
2021/04/05 11:25:13;;;;;;;14.73;3.03;;;8.60;97.00;;;;;;5073937;28;20021;-57
2021/04/05 11:27:46;;;;;;;17.52;3.50;;;8.10;98.90;;;;;;5074243;28;20108;-57
2021/04/05 11:30:13;;;;;;;25.15;3.33;;;8.00;97.60;;;;;;5074284;28;20020;-57
2021/04/05 11:32:52;;;;;;;16.48;3.90;;;7.60;98.30;;;;;;5074056;28;20031;-57
2021/04/05 11:35:30;;;;;;;10.80;3.17;;;7.50;99.50;;;;;;5072680;28;20031;-57
2021/04/05 11:38:01;;;;;;;15.27;3.67;;;7.50;96.00;;;;;;5074372;28;20485;-57
2021/04/05 11:40:29;;;;;;;17.00;3.00;;;7.00;95.40;;;;;;5073882;28;20031;-57
2021/04/05 11:42:56;;;;;;;23.98;5.30;;;7.00;94.90;;;;;;5074062;28;20043;-57
2021/04/05 11:45:39;;;;;;;11.20;3.65;;;7.30;93.10;;;;;;5074035;28;20037;-57
2021/04/05 11:48:10;;;;;;;;;;;7.90;91.80;;;;;;5073117;28;20059;-57
2021/04/05 11:50:36;;;;;;;13.90;3.03;;;8.30;87.70;;;;;;5073329;28;19999;-58
2021/04/05 11:53:16;;;;;;;12.60;3.53;;;8.60;85.40;;;;;;5072021;28;20451;-58
2021/04/05 11:55:43;;;;;;;13.30;3.20;;;8.60;83.90;;;;;;5072393;28;20054;-58
2021/04/05 11:58:27;;;;;;;14.80;3.53;;;8.30;79.40;;;;;;5073698;28;20024;-58
2021/04/05 12:01:00;;;;;;;10.80;2.67;;;8.50;80.50;;;;;;5073666;28;20021;-58
2021/04/05 12:03:46;;;;;;;14.48;3.60;;;8.20;79.10;;;;;;5073479;28;20054;-58
2021/04/05 12:06:16;;;;;;;11.75;1.98;;;7.90;82.80;;;;;;5073786;28;20431;-58
2021/04/05 12:09:07;;;;;;;7.93;2.38;;;7.30;81.20;;;;;;5073539;28;20074;-58
2021/04/05 12:11:52;;;;;;;9.90;2.10;;;8.00;80.00;;;;;;5073239;28;20021;-58
2021/04/05 12:14:25;;;;;;;15.90;2.55;;;9.50;74.90;;;;;;5072852;28;20485;-58
2021/04/05 12:16:53;;;;;;;13.90;2.28;;;10.30;67.80;;;;;;5073132;28;20059;-60
2021/04/05 12:19:26;;;;;;;12.45;2.58;;;9.70;66.40;;;;;;5072657;28;20036;-60
2021/04/05 12:21:52;;;;;;;9.65;1.90;;;9.00;70.40;;;;;;5072758;28;20013;-60
2021/04/05 12:24:28;;;;;;;5.95;2.55;;;8.20;71.70;;;;;;5072610;28;20031;-60
2021/04/05 12:26:56;;;;;;;9.65;2.00;;;7.40;74.70;;;;;;5072773;28;20033;-60
2021/04/05 12:29:26;;;;;;;8.82;2.15;;;6.90;69.30;;;;;;5072807;28;20066;-60
2021/04/05 12:31:54;;;;;;;7.40;2.05;;;7.60;71.20;;;;;;5072676;28;20094;-60
2021/04/05 12:34:20;;;;;;;6.97;1.80;;;8.90;65.70;;;;;;5071388;28;20031;-60
2021/04/05 12:36:46;;;;;;;11.85;1.90;;;9.70;60.50;;;;;;5072854;28;20020;-60
2021/04/05 12:39:13;;;;;;;8.82;1.60;;;10.30;58.60;;;;;;5072575;28;20075;-60
2021/04/05 12:41:41;;;;;;;7.70;1.95;;;10.00;55.70;;;;;;5071064;28;20105;-60
2021/04/05 12:44:10;;;;;;;6.55;1.70;;;9.40;54.60;;;;;;5072216;28;20032;-60
2021/04/05 12:46:38;;;;;;;13.02;1.75;;;9.10;57.50;;;;;;5071403;28;20401;-60
2021/04/05 12:49:05;;;;;;;6.00;1.60;;;9.50;54.40;;;;;;5071196;28;20028;-60
2021/04/05 12:51:30;;;;;;;9.93;1.95;;;9.50;55.10;;;;;;5072841;28;20503;-60
2021/04/05 12:54:04;;;;;;;10.57;1.55;;;9.00;53.70;;;;;;5072478;28;20024;-60
2021/04/05 12:56:31;;;;;;;10.30;1.77;;;9.20;52.90;;;;;;5072327;28;20021;-60
2021/04/05 12:58:57;;;;;;;11.15;1.70;;;9.00;52.20;;;;;;5072426;28;20021;-60
2021/04/05 13:02:02;;;;;;;6.57;1.20;;;8.50;53.30;;;;;;5072343;28;20024;-60
2021/04/05 13:04:31;;;;;;;8.32;1.58;;;9.30;54.10;;;;;;5041575;28;20068;-60
2021/04/05 13:07:10;;;;;;;10.10;2.05;;;10.30;51.60;;;;;;5070350;28;20020;-60
2021/04/05 13:09:40;;;;;;;9.63;2.47;;;11.20;49.00;;;;;;5072201;28;20035;-60
2021/04/05 13:12:19;;;;;;;8.02;1.90;;;11.90;46.30;;;;;;5070377;28;20020;-60
2021/04/05 13:14:54;;;;;;;9.98;1.83;;;11.50;45.00;;;;;;5061212;28;20024;-60
2021/04/05 13:17:34;;;;;;;7.20;1.67;;;11.00;44.70;;;;;;5069298;28;20025;-60
2021/04/05 13:20:04;;;;;;;6.43;1.92;;;11.90;45.60;;;;;;5051478;28;20486;-60